MST,Max TemperatureF,Mean TemperatureF,Min TemperatureF,Max Dew PointF,MeanDew PointF,Min DewpointF,Max Humidity, Mean Humidity, Min Humidity, Max Sea Level PressureIn, Mean Sea Level PressureIn, Min Sea Level PressureIn, Max VisibilityMiles, Mean VisibilityMiles, Min VisibilityMiles, Max Wind SpeedMPH, Mean Wind SpeedMPH, Max Gust SpeedMPH,PrecipitationIn, CloudCover, Events, WindDirDegrees
2012-12-1,71,62,53,39,38,37,54,37,29,30.12,30.06,30.01,20,20,20,8,6,,0.00,2,,130
2012-12-2,71,61,51,39,38,36,54,40,27,30.07,30.03,30.00,20,20,20,9,6,,0.00,2,,357
2012-12-3,71,63,55,43,40,37,54,40,31,30.14,30.08,30.05,20,20,20,7,5,,0.00,4,,249
2012-12-4,77,65,53,41,39,37,62,39,25,30.24,30.17,30.11,,,,9,7,,0.00,5,,335
2012-12-5,77,67,57,34,32,28,41,27,18,30.11,30.04,29.96,20,18,15,12,7,,0.00,6,,224
2012-12-6,71,60,53,36,30,28,42,34,24,29.94,29.91,29.82,20,20,20,9,6,,0.00,6,,354
2012-12-7,59,53,51,34,32,32,50,44,36,29.94,29.91,29.88,,,,8,7,,0.00,0,,7
2012-12-8,69,58,50,37,36,36,58,43,28,29.96,29.93,29.89,,,,7,6,,0.00,0,,103
2012-12-9,66,55,44,30,28,25,57,39,22,30.01,29.98,29.95,20,20,20,12,8,,0.00,1,,319
2012-12-10,60,51,42,19,6,-8,28,16,6,30.17,30.07,30.01,20,20,20,14,10,17,0.00,0,,321
2012-12-11,66,52,39,19,15,10,39,22,14,30.10,30.04,29.98,15,15,15,8,5,,0.00,3,,199
2012-12-12,69,56,42,18,14,10,34,20,10,30.03,29.96,29.88,20,20,20,9,5,,0.00,2,,65
2012-12-13,66,56,46,27,21,16,32,27,22,29.93,29.91,29.89,15,15,15,12,7,,0.00,4,,68
2012-12-14,55,49,48,48,43,34,100,79,44,29.94,29.83,29.74,20,20,20,12,11,,0.00,6,,184
2012-12-15,51,50,48,48,48,46,100,96,82,30.00,29.97,29.94,20,11,4,12,10,,0.00,7,Rain,125
2012-12-16,55,48,42,45,38,32,100,65,44,30.14,30.11,30.06,20,10,3,8,5,,0.00,3,,218
2012-12-17,59,49,39,39,37,34,100,64,41,30.19,30.11,30.02,20,20,20,8,5,,0.00,1,,25
2012-12-18,57,50,42,43,40,37,93,67,51,29.96,29.85,29.74,20,20,20,7,6,,0.00,6,,6
2012-12-19,51,45,39,39,28,23,65,52,33,30.25,30.11,29.91,20,20,20,14,8,17,0.00,1,,229
2012-12-20,60,48,37,18,15,10,45,28,16,30.32,30.24,30.15,15,15,15,17,12,,0.00,3,,10
2012-12-21,55,49,48,14,12,10,25,22,17,30.14,30.12,30.10,20,20,20,14,12,,0.00,0,,15
2012-12-22,66,58,50,30,25,21,40,30,21,30.12,30.08,30.04,,,,9,6,,0.00,4,,25
2012-12-23,62,52,42,34,32,30,66,44,31,30.15,30.08,30.02,20,20,20,8,6,,0.00,2,,299
2012-12-24,59,52,44,37,35,34,66,47,41,30.03,29.94,29.89,,,,14,6,,0.00,4,,210
2012-12-25,66,54,42,19,15,12,39,26,13,30.14,30.06,30.02,20,20,20,14,10,,0.00,6,,355
2012-12-26,57,48,39,25,23,21,49,35,26,29.95,29.89,29.83,20,20,20,12,7,,0.00,7,,166
2012-12-27,51,45,39,32,28,25,61,51,38,29.96,29.91,29.86,20,20,20,15,7,23,0.00,4,,12
2012-12-28,53,44,35,32,30,25,87,59,33,30.17,30.12,30.09,20,20,20,13,9,,0.00,0,,326
2012-12-29,60,50,39,23,19,16,45,30,17,30.11,30.04,29.95,20,18,10,14,9,,0.00,3,,29
2012-12-30,53,48,42,43,29,23,100,51,33,29.93,29.88,29.83,20,19,15,9,5,,0.00,7,Rain,230
2012-12-31,51,45,39,41,33,25,100,67,38,30.16,30.11,30.02,20,18,15,14,7,,0.00,4,,188